createdAt,value
2017-02-07T18:15:49.554Z,1012.24
2017-02-07T18:16:59.806Z,1012.27
2017-02-07T18:18:10.444Z,1012.23
2017-02-07T18:19:20.293Z,1012.2
2017-02-07T18:20:30.977Z,1012.19
2017-02-07T18:21:41.973Z,1012.21
2017-02-07T18:22:52.230Z,1012.19
2017-02-07T18:24:02.085Z,1012.19
2017-02-07T18:25:12.338Z,1012.17
2017-02-07T18:26:22.995Z,1012.18
2017-02-07T18:27:32.609Z,1012.2
2017-02-07T18:28:43.263Z,1012.2
2017-02-07T18:29:53.904Z,1012.19
2017-02-07T18:31:04.554Z,1012.18
2017-02-07T18:32:15.218Z,1012.22
2017-02-07T18:33:25.564Z,1012.27
2017-02-07T18:34:35.823Z,1012.23
2017-02-07T18:35:46.459Z,1012.25
2017-02-07T18:36:57.096Z,1012.22
2017-02-07T18:38:07.360Z,1012.25
2017-02-07T18:39:18.177Z,1012.25
2017-02-07T18:40:28.040Z,1012.27
2017-02-07T18:41:38.292Z,1012.26
2017-02-07T18:42:48.561Z,1012.31
2017-02-07T18:43:58.040Z,1012.31
2017-02-07T18:45:08.462Z,1012.29
2017-02-07T18:46:19.668Z,1012.31
2017-02-07T18:47:31.473Z,1012.31
2017-02-07T18:48:41.741Z,1012.29
2017-02-07T18:49:52.427Z,1012.28
2017-02-07T18:51:02.004Z,1012.32
2017-02-07T18:52:11.887Z,1012.29
2017-02-07T18:53:21.779Z,1012.29
2017-02-07T18:54:31.644Z,1012.31
2017-02-07T18:55:42.288Z,1012.28
2017-02-07T18:56:52.821Z,1012.28
2017-02-07T18:58:03.469Z,1012.31
2017-02-07T18:59:13.728Z,1012.3
2017-02-07T19:00:24.374Z,1012.31
2017-02-07T19:01:34.634Z,1012.31
2017-02-07T19:02:44.412Z,1012.32
2017-02-07T19:03:55.071Z,1012.33
2017-02-07T19:05:05.334Z,1012.29
2017-02-07T19:06:15.211Z,1012.35
2017-02-07T19:07:25.096Z,1012.33
2017-02-07T19:08:35.731Z,1012.34
2017-02-07T19:09:45.672Z,1012.34
2017-02-07T19:10:55.535Z,1012.39
2017-02-07T19:12:06.199Z,1012.38
2017-02-07T19:13:16.845Z,1012.35
2017-02-07T19:14:27.643Z,1012.42
2017-02-07T19:15:37.905Z,1012.4
2017-02-07T19:16:48.196Z,1012.39
2017-02-07T19:17:58.849Z,1012.43
2017-02-07T19:19:09.548Z,1012.48
2017-02-07T19:20:20.104Z,1012.45
2017-02-07T19:21:30.353Z,1012.45
2017-02-07T19:22:41.005Z,1012.44
2017-02-07T19:23:51.270Z,1012.46
2017-02-07T19:25:01.814Z,1012.42
2017-02-07T19:26:12.760Z,1012.47
2017-02-07T19:27:23.430Z,1012.46
2017-02-07T19:28:33.281Z,1012.48
2017-02-07T19:29:43.539Z,1012.47
2017-02-07T19:30:53.796Z,1012.48
2017-02-07T19:32:04.005Z,1012.48
2017-02-07T19:33:13.860Z,1012.44
2017-02-07T19:34:24.520Z,1012.47
2017-02-07T19:35:33.987Z,1012.41
2017-02-07T19:36:43.065Z,1012.49
2017-02-07T19:37:53.473Z,1012.47
2017-02-07T19:39:03.351Z,1012.47
2017-02-07T19:40:13.240Z,1012.5
2017-02-07T19:41:23.497Z,1012.47
2017-02-07T19:42:34.151Z,1012.48
2017-02-07T19:43:45.156Z,1012.49
2017-02-07T19:44:55.414Z,1012.51
2017-02-07T19:46:05.671Z,1012.51
2017-02-07T19:47:16.320Z,1012.48
2017-02-07T19:48:26.588Z,1012.47
2017-02-07T19:49:36.944Z,1012.48
2017-02-07T19:50:46.810Z,1012.5
2017-02-07T19:51:57.129Z,1012.51
2017-02-07T19:53:06.593Z,1012.54
2017-02-07T19:54:16.856Z,1012.57
2017-02-07T19:55:27.474Z,1012.56
2017-02-07T19:56:36.944Z,1012.56
2017-02-07T19:57:47.490Z,1012.6
2017-02-07T19:58:57.789Z,1012.59
2017-02-07T20:00:07.646Z,1012.6
2017-02-07T20:01:17.836Z,1012.63
2017-02-07T20:02:28.086Z,1012.57
2017-02-07T20:03:38.755Z,1012.61
2017-02-07T20:04:49.025Z,1012.61
2017-02-07T20:05:59.293Z,1012.66
2017-02-07T20:07:09.408Z,1012.64
2017-02-07T20:08:19.672Z,1012.66
2017-02-07T20:09:30.332Z,1012.67
2017-02-07T20:10:40.592Z,1012.66
2017-02-07T20:11:50.900Z,1012.66
2017-02-07T20:13:01.838Z,1012.68
2017-02-07T20:14:12.537Z,1012.69
2017-02-07T20:15:22.421Z,1012.68
2017-02-07T20:16:32.688Z,1012.69
2017-02-07T20:17:43.367Z,1012.72
2017-02-07T20:18:53.589Z,1012.67
2017-02-07T20:20:03.840Z,1012.65
2017-02-07T20:21:13.696Z,1012.67
2017-02-07T20:22:23.567Z,1012.71
2017-02-07T20:23:34.205Z,1012.67
2017-02-07T20:24:45.131Z,1012.69
2017-02-07T20:25:55.401Z,1012.66
2017-02-07T20:27:06.040Z,1012.7
2017-02-07T20:28:16.689Z,1012.71
2017-02-07T20:29:27.337Z,1012.72
2017-02-07T20:30:37.360Z,1012.68
2017-02-07T20:31:47.630Z,1012.67
2017-02-07T20:32:58.320Z,1012.64
2017-02-07T20:34:08.966Z,1012.68
2017-02-07T20:35:19.233Z,1012.73
2017-02-07T20:36:30.192Z,1012.7
2017-02-07T20:37:41.624Z,1012.7
2017-02-07T20:38:51.101Z,1012.72
2017-02-07T20:40:00.975Z,1012.74
2017-02-07T20:41:10.843Z,1012.72
2017-02-07T20:42:21.341Z,1012.71
2017-02-07T20:43:31.991Z,1012.76
2017-02-07T20:44:42.253Z,1012.77
2017-02-07T20:45:52.904Z,1012.77
2017-02-07T20:47:02.772Z,1012.76
2017-02-07T20:48:13.176Z,1012.73
2017-02-07T20:49:23.434Z,1012.73
2017-02-07T20:50:33.693Z,1012.77
2017-02-07T20:51:43.946Z,1012.75
2017-02-07T20:52:54.593Z,1012.73
2017-02-07T20:54:05.195Z,1012.78
2017-02-07T20:55:14.665Z,1012.8
2017-02-07T20:56:24.949Z,1012.83
2017-02-07T20:57:35.197Z,1012.83
2017-02-07T20:58:45.831Z,1012.85
2017-02-07T20:59:56.328Z,1012.81
2017-02-07T21:01:06.576Z,1012.91
2017-02-07T21:02:16.830Z,1012.87
2017-02-07T21:03:27.477Z,1012.93
2017-02-07T21:04:37.748Z,1012.89
2017-02-07T21:05:48.162Z,1012.88
2017-02-07T21:06:58.821Z,1012.92
2017-02-07T21:08:09.459Z,1012.89
2017-02-07T21:09:20.098Z,1012.91
2017-02-07T21:10:30.736Z,1012.89
2017-02-07T21:11:41.732Z,1012.9
2017-02-07T21:12:52.370Z,1012.93
2017-02-07T21:14:02.697Z,1012.92
2017-02-07T21:15:13.345Z,1012.92
2017-02-07T21:16:23.212Z,1012.92
2017-02-07T21:17:34.099Z,1012.9
2017-02-07T21:18:43.987Z,1012.91
2017-02-07T21:19:54.664Z,1012.92
2017-02-07T21:21:04.931Z,1012.9
2017-02-07T21:22:15.209Z,1012.89
2017-02-07T21:23:25.591Z,1012.9
2017-02-07T21:24:36.238Z,1012.91
2017-02-07T21:25:46.495Z,1012.93
2017-02-07T21:26:56.774Z,1012.91
2017-02-07T21:28:07.014Z,1012.91
2017-02-07T21:29:18.022Z,1012.9
2017-02-07T21:30:28.674Z,1012.92
2017-02-07T21:31:38.146Z,1012.89
2017-02-07T21:32:48.822Z,1012.91
2017-02-07T21:33:59.465Z,1012.88
2017-02-07T21:35:09.581Z,1012.87
2017-02-07T21:36:19.455Z,1012.86
2017-02-07T21:37:30.115Z,1012.88
2017-02-07T21:38:40.763Z,1012.86
2017-02-07T21:39:51.408Z,1012.88
2017-02-07T21:41:01.804Z,1012.84
2017-02-07T21:42:12.059Z,1012.86
2017-02-07T21:43:21.927Z,1012.87
2017-02-07T21:44:32.581Z,1012.85
2017-02-07T21:45:42.463Z,1012.86
2017-02-07T21:46:53.055Z,1012.87
2017-02-07T21:48:03.711Z,1012.87
2017-02-07T21:49:13.960Z,1012.91
2017-02-07T21:50:24.609Z,1012.91
2017-02-07T21:51:34.875Z,1012.91
2017-02-07T21:52:45.430Z,1012.9
2017-02-07T21:53:55.341Z,1012.88
2017-02-07T21:55:05.592Z,1012.9
2017-02-07T21:56:15.464Z,1012.9
2017-02-07T21:57:25.727Z,1012.95
2017-02-07T21:58:35.832Z,1012.95
2017-02-07T21:59:45.691Z,1012.95
2017-02-07T22:00:56.623Z,1012.94
2017-02-07T22:02:06.881Z,1012.96
2017-02-07T22:03:17.137Z,1012.97
2017-02-07T22:04:28.034Z,1012.98
2017-02-07T22:05:38.284Z,1013
2017-02-07T22:06:48.171Z,1012.96
2017-02-07T22:07:58.859Z,1013.02
2017-02-07T22:09:08.715Z,1012.99
2017-02-07T22:10:18.732Z,1013.02
2017-02-07T22:11:29.424Z,1012.97
2017-02-07T22:12:39.416Z,1013.01
2017-02-07T22:13:50.084Z,1012.97
2017-02-07T22:15:00.363Z,1013
2017-02-07T22:16:11.388Z,1012.98
2017-02-07T22:17:21.640Z,1013.02
2017-02-07T22:18:32.300Z,1013.03
2017-02-07T22:19:42.629Z,1013.02
2017-02-07T22:20:52.538Z,1012.97
2017-02-07T22:22:02.950Z,1013.01
2017-02-07T22:23:13.199Z,1013.04
2017-02-07T22:24:23.070Z,1012.99
2017-02-07T22:25:33.710Z,1012.99
2017-02-07T22:26:44.345Z,1012.97
2017-02-07T22:27:55.336Z,1012.96
2017-02-07T22:29:05.198Z,1012.99
2017-02-07T22:30:14.674Z,1012.98
2017-02-07T22:31:24.943Z,1013.05
2017-02-07T22:32:35.596Z,1013.05
2017-02-07T22:33:45.703Z,1013.08
2017-02-07T22:34:55.992Z,1013.07
2017-02-07T22:36:06.759Z,1013.06
2017-02-07T22:37:18.295Z,1013.09
2017-02-07T22:38:28.556Z,1013.1
2017-02-07T22:39:38.174Z,1013.15
2017-02-07T22:40:48.026Z,1013.11
2017-02-07T22:41:58.402Z,1013.14
2017-02-07T22:43:09.034Z,1013.18
2017-02-07T22:44:19.366Z,1013.16
2017-02-07T22:45:29.092Z,1013.17
2017-02-07T22:46:39.742Z,1013.19
2017-02-07T22:47:49.994Z,1013.19
2017-02-07T22:49:00.249Z,1013.22
2017-02-07T22:50:10.107Z,1013.27
2017-02-07T22:51:20.603Z,1013.27
2017-02-07T22:52:31.243Z,1013.28
2017-02-07T22:53:41.874Z,1013.27
2017-02-07T22:54:52.520Z,1013.26
2017-02-07T22:56:03.175Z,1013.3
2017-02-07T22:57:13.768Z,1013.3
2017-02-07T22:58:24.023Z,1013.26
2017-02-07T22:59:34.652Z,1013.33
2017-02-07T23:00:45.293Z,1013.28
2017-02-07T23:01:55.524Z,1013.27
2017-02-07T23:03:05.918Z,1013.34
2017-02-07T23:04:15.771Z,1013.32
2017-02-07T23:05:25.645Z,1013.3
2017-02-07T23:06:35.885Z,1013.28
2017-02-07T23:07:45.727Z,1013.29
2017-02-07T23:08:56.663Z,1013.32
2017-02-07T23:10:06.528Z,1013.33
2017-02-07T23:11:16.371Z,1013.33
2017-02-07T23:12:26.223Z,1013.35
2017-02-07T23:13:36.474Z,1013.34
2017-02-07T23:14:46.479Z,1013.38
2017-02-07T23:15:57.107Z,1013.35
2017-02-07T23:17:07.372Z,1013.36
2017-02-07T23:18:16.843Z,1013.35
2017-02-07T23:19:27.093Z,1013.38
2017-02-07T23:20:37.660Z,1013.36
2017-02-07T23:21:48.302Z,1013.43
2017-02-07T23:22:58.940Z,1013.42
2017-02-07T23:24:09.186Z,1013.45
2017-02-07T23:25:19.428Z,1013.45
2017-02-07T23:26:30.366Z,1013.42
2017-02-07T23:27:40.620Z,1013.45
2017-02-07T23:28:50.892Z,1013.45
2017-02-07T23:30:01.153Z,1013.38
2017-02-07T23:31:11.400Z,1013.44
2017-02-07T23:32:21.973Z,1013.48
2017-02-07T23:33:31.830Z,1013.46
2017-02-07T23:34:42.494Z,1013.46
2017-02-07T23:35:53.121Z,1013.49
2017-02-07T23:37:02.965Z,1013.48
2017-02-07T23:38:13.409Z,1013.48
2017-02-07T23:39:24.034Z,1013.49
2017-02-07T23:40:34.275Z,1013.49
2017-02-07T23:41:44.139Z,1013.47
2017-02-07T23:42:54.798Z,1013.57
2017-02-07T23:44:04.421Z,1013.51
2017-02-07T23:45:15.061Z,1013.55
2017-02-07T23:46:25.446Z,1013.61
2017-02-07T23:47:35.316Z,1013.57
2017-02-07T23:48:45.955Z,1013.58
2017-02-07T23:49:56.306Z,1013.59
2017-02-07T23:51:06.544Z,1013.58
2017-02-07T23:52:16.793Z,1013.59
2017-02-07T23:53:27.423Z,1013.59
2017-02-07T23:54:37.279Z,1013.6
2017-02-07T23:55:47.820Z,1013.6
2017-02-07T23:56:58.445Z,1013.62
2017-02-07T23:58:09.083Z,1013.61
2017-02-07T23:59:18.938Z,1013.63
